Time;durP1;ratioP1;P1;durP2;ratioP2;P2;SDS_P1;SDS_P2;PMS_P1;PMS_P2;Temp;Humidity;BMP_temperature;BMP_pressure;BME280_temperature;BME280_humidity;BME280_pressure;Samples;Min_cycle;Max_cycle;Signal;HPM_P1;HPM_P2
2024/01/24 00:00:20;;;;;;;7.05;2.90;;;;;;;;;;5061336;28;20049;-80
2024/01/24 00:02:48;;;;;;;7.20;3.10;;;;;;;;;;5056066;28;20037;-80
2024/01/24 00:05:14;;;;;;;7.57;3.17;;;;;;;;;;5059697;28;20037;-80
2024/01/24 00:07:40;;;;;;;7.63;3.15;;;;;;;;;;5061569;28;20060;-80
2024/01/24 00:10:06;;;;;;;8.40;2.58;;;;;;;;;;5050471;28;20045;-80
2024/01/24 00:12:32;;;;;;;6.90;2.60;;;;;;;;;;5057452;28;20067;-80
2024/01/24 00:14:59;;;;;;;5.13;2.25;;;;;;;;;;5061883;28;20048;-80
2024/01/24 00:17:25;;;;;;;6.60;2.80;;;;;;;;;;5060469;28;20079;-80
2024/01/24 00:19:51;;;;;;;6.13;2.67;;;;;;;;;;5061067;28;20037;-80
2024/01/24 00:22:17;;;;;;;8.63;3.17;;;;;;;;;;5061817;28;20071;-80
2024/01/24 00:24:46;;;;;;;7.68;2.72;;;;;;;;;;5060304;28;20041;-80
2024/01/24 00:27:13;;;;;;;4.95;2.80;;;;;;;;;;5062504;28;20045;-80
2024/01/24 00:29:39;;;;;;;6.43;2.60;;;;;;;;;;5061162;28;20414;-80
2024/01/24 00:32:05;;;;;;;7.05;2.63;;;;;;;;;;5048434;28;20042;-80
2024/01/24 00:34:31;;;;;;;5.68;2.60;;;;;;;;;;5059499;28;20060;-80
2024/01/24 00:36:58;;;;;;;8.65;2.88;;;;;;;;;;5059061;28;20044;-80
2024/01/24 00:39:24;;;;;;;10.27;3.10;;;;;;;;;;5057253;28;20116;-80
2024/01/24 00:41:50;;;;;;;7.32;2.58;;;;;;;;;;5054585;28;20037;-80
2024/01/24 00:44:16;;;;;;;8.90;2.40;;;;;;;;;;5058219;28;20120;-80
2024/01/24 00:46:42;;;;;;;5.53;2.50;;;;;;;;;;5061002;28;20083;-80
2024/01/24 00:49:13;;;;;;;6.35;2.30;;;;;;;;;;5062215;28;20055;-80
2024/01/24 00:51:39;;;;;;;8.57;2.03;;;;;;;;;;5061955;28;20045;-80
2024/01/24 00:54:05;;;;;;;6.85;2.50;;;;;;;;;;5062532;28;20068;-80
2024/01/24 00:56:31;;;;;;;7.38;2.40;;;;;;;;;;5056038;28;20460;-80
2024/01/24 00:58:57;;;;;;;8.18;2.38;;;;;;;;;;5044816;28;20119;-80
2024/01/24 01:01:23;;;;;;;15.20;2.92;;;;;;;;;;5056829;28;20064;-80
2024/01/24 01:03:49;;;;;;;6.97;2.40;;;;;;;;;;5061021;28;20475;-80
2024/01/24 01:06:15;;;;;;;6.30;2.08;;;;;;;;;;5062867;28;20050;-80
2024/01/24 01:08:41;;;;;;;7.63;2.17;;;;;;;;;;5062288;28;20063;-80
2024/01/24 01:11:07;;;;;;;8.45;2.30;;;;;;;;;;5061686;28;20051;-80
2024/01/24 01:13:34;;;;;;;6.85;1.80;;;;;;;;;;5061012;28;20037;-80
2024/01/24 01:16:00;;;;;;;8.73;2.20;;;;;;;;;;5060794;28;20076;-80
2024/01/24 01:18:26;;;;;;;5.43;1.60;;;;;;;;;;5061665;28;20080;-80
2024/01/24 01:20:52;;;;;;;5.22;1.70;;;;;;;;;;5059110;28;20029;-81
2024/01/24 01:23:19;;;;;;;5.03;1.90;;;;;;;;;;5057209;28;20038;-81
2024/01/24 01:25:45;;;;;;;6.95;1.38;;;;;;;;;;5056613;28;20422;-80
2024/01/24 01:28:12;;;;;;;7.85;1.70;;;;;;;;;;5059956;28;20079;-80
2024/01/24 01:30:38;;;;;;;6.32;1.50;;;;;;;;;;5060655;28;20045;-81
2024/01/24 01:33:04;;;;;;;5.25;1.70;;;;;;;;;;5047112;28;20045;-80
2024/01/24 01:35:30;;;;;;;4.95;1.65;;;;;;;;;;5061244;28;20048;-80
2024/01/24 01:37:56;;;;;;;3.70;1.20;;;;;;;;;;5059815;28;20037;-80
2024/01/24 01:40:22;;;;;;;3.80;1.00;;;;;;;;;;5054717;28;20053;-80
2024/01/24 01:42:48;;;;;;;3.10;0.98;;;;;;;;;;5070343;28;20052;-80
2024/01/24 01:45:14;;;;;;;2.75;0.90;;;;;;;;;;5053934;28;20037;-80
2024/01/24 01:47:41;;;;;;;6.28;1.25;;;;;;;;;;5059474;28;20402;-80
2024/01/24 01:50:12;;;;;;;4.10;0.90;;;;;;;;;;5059451;28;20048;-81
2024/01/24 01:52:39;;;;;;;6.05;1.08;;;;;;;;;;5055039;28;20041;-80
2024/01/24 01:55:06;;;;;;;3.50;0.98;;;;;;;;;;5053453;28;20064;-80
2024/01/24 01:57:33;;;;;;;3.58;0.80;;;;;;;;;;5059851;28;20053;-80
2024/01/24 01:59:59;;;;;;;4.70;0.90;;;;;;;;;;5059829;28;20143;-81
2024/01/24 02:02:25;;;;;;;2.88;0.90;;;;;;;;;;5042451;28;20072;-82
2024/01/24 02:04:51;;;;;;;5.60;0.82;;;;;;;;;;5043538;28;20068;-80
2024/01/24 02:07:17;;;;;;;3.13;0.77;;;;;;;;;;5051352;28;20067;-81
2024/01/24 02:09:44;;;;;;;4.38;1.10;;;;;;;;;;5058978;28;20055;-81
2024/01/24 02:12:10;;;;;;;3.72;0.80;;;;;;;;;;5059012;28;20075;-80
2024/01/24 02:14:36;;;;;;;2.90;0.75;;;;;;;;;;5058860;28;20060;-81
2024/01/24 02:17:02;;;;;;;3.05;0.90;;;;;;;;;;5059281;28;20041;-80
2024/01/24 02:19:28;;;;;;;3.70;0.88;;;;;;;;;;5058144;28;20051;-81
2024/01/24 02:21:54;;;;;;;2.85;0.80;;;;;;;;;;5059927;28;20041;-81
2024/01/24 02:24:20;;;;;;;4.43;0.90;;;;;;;;;;5060753;28;20053;-81
2024/01/24 02:26:47;;;;;;;5.25;0.95;;;;;;;;;;5057586;28;20043;-81
2024/01/24 02:29:13;;;;;;;5.93;1.00;;;;;;;;;;5059547;28;20380;-80
2024/01/24 02:31:39;;;;;;;6.50;1.10;;;;;;;;;;5059844;28;20041;-81
2024/01/24 02:34:05;;;;;;;4.40;0.90;;;;;;;;;;5060431;28;20049;-80
2024/01/24 02:36:31;;;;;;;3.80;0.85;;;;;;;;;;5058022;28;20086;-81
2024/01/24 02:38:57;;;;;;;4.53;1.05;;;;;;;;;;5060368;28;20037;-80
2024/01/24 02:41:24;;;;;;;7.40;1.10;;;;;;;;;;5059947;28;20041;-81
2024/01/24 02:43:50;;;;;;;2.65;0.90;;;;;;;;;;5050054;28;20052;-80
2024/01/24 02:46:16;;;;;;;6.25;1.05;;;;;;;;;;5054316;28;20053;-81
2024/01/24 02:48:42;;;;;;;5.10;1.10;;;;;;;;;;5054115;28;20053;-81
2024/01/24 02:51:11;;;;;;;7.15;1.27;;;;;;;;;;5055884;28;20045;-81
2024/01/24 02:53:37;;;;;;;7.78;1.42;;;;;;;;;;5059679;28;20048;-80
2024/01/24 02:56:03;;;;;;;7.07;1.20;;;;;;;;;;5060057;28;20052;-82
2024/01/24 02:58:29;;;;;;;5.57;1.15;;;;;;;;;;5058898;28;20064;-80
2024/01/24 03:00:55;;;;;;;6.50;1.02;;;;;;;;;;5058215;28;20044;-83
2024/01/24 03:03:21;;;;;;;5.75;1.15;;;;;;;;;;5056296;28;20053;-81
2024/01/24 03:05:47;;;;;;;7.70;1.20;;;;;;;;;;5059469;28;20047;-80
2024/01/24 03:08:13;;;;;;;8.43;1.40;;;;;;;;;;5058995;28;20087;-81
2024/01/24 03:10:39;;;;;;;8.57;1.75;;;;;;;;;;5058480;28;20041;-80
2024/01/24 03:13:05;;;;;;;10.18;1.85;;;;;;;;;;5050309;28;20052;-81
2024/01/24 03:15:31;;;;;;;9.05;1.63;;;;;;;;;;5058036;28;20102;-80
2024/01/24 03:17:57;;;;;;;13.27;2.38;;;;;;;;;;5048755;28;20036;-80
2024/01/24 03:20:23;;;;;;;9.15;1.40;;;;;;;;;;5045932;28;20410;-81
2024/01/24 03:22:49;;;;;;;13.98;2.05;;;;;;;;;;5054328;28;20049;-81
2024/01/24 03:25:18;;;;;;;16.23;2.60;;;;;;;;;;5057946;28;20508;-81
2024/01/24 03:27:44;;;;;;;15.65;2.08;;;;;;;;;;5056328;28;20053;-81
2024/01/24 03:30:11;;;;;;;13.40;2.17;;;;;;;;;;5059484;28;20494;-81
2024/01/24 03:32:37;;;;;;;13.07;2.35;;;;;;;;;;5060077;28;20064;-82
2024/01/24 03:35:03;;;;;;;16.63;2.53;;;;;;;;;;5051947;28;20053;-81
2024/01/24 03:37:29;;;;;;;14.60;2.55;;;;;;;;;;5047827;28;20502;-81
2024/01/24 03:39:55;;;;;;;15.93;2.38;;;;;;;;;;5051943;28;20388;-81
2024/01/24 03:42:21;;;;;;;15.60;2.45;;;;;;;;;;5074087;28;20064;-81
2024/01/24 03:44:47;;;;;;;12.40;2.22;;;;;;;;;;5063319;28;20395;-81
2024/01/24 03:47:13;;;;;;;10.32;2.40;;;;;;;;;;5064454;28;20065;-81
2024/01/24 03:49:39;;;;;;;14.77;3.00;;;;;;;;;;5063724;28;20060;-81
2024/01/24 03:52:05;;;;;;;15.70;3.00;;;;;;;;;;5058124;28;20101;-81
2024/01/24 03:54:31;;;;;;;14.15;2.38;;;;;;;;;;5050267;28;20048;-81
2024/01/24 03:56:58;;;;;;;15.05;2.83;;;;;;;;;;5063960;28;20045;-81
2024/01/24 03:59:24;;;;;;;14.98;2.10;;;;;;;;;;5056546;28;20053;-82
2024/01/24 04:01:50;;;;;;;13.77;2.45;;;;;;;;;;5057983;28;20052;-82
2024/01/24 04:04:16;;;;;;;14.57;2.42;;;;;;;;;;5063166;28;20502;-81
2024/01/24 04:06:42;;;;;;;15.10;3.30;;;;;;;;;;5063811;28;20108;-81
2024/01/24 04:09:11;;;;;;;21.42;3.17;;;;;;;;;;5063745;28;20041;-82
2024/01/24 04:11:38;;;;;;;14.88;2.78;;;;;;;;;;5063845;28;20052;-81
2024/01/24 04:14:06;;;;;;;11.98;2.53;;;;;;;;;;5059725;28;20142;-82
2024/01/24 04:16:32;;;;;;;21.88;3.63;;;;;;;;;;5064014;28;20053;-81
2024/01/24 04:18:58;;;;;;;19.33;3.47;;;;;;;;;;5063473;28;20049;-82
2024/01/24 04:21:24;;;;;;;22.35;3.17;;;;;;;;;;5064104;28;20491;-81
2024/01/24 04:23:50;;;;;;;19.60;3.90;;;;;;;;;;5062514;28;20052;-81
2024/01/24 04:26:21;;;;;;;21.92;3.63;;;;;;;;;;5063360;28;20037;-81
2024/01/24 04:28:47;;;;;;;26.27;4.22;;;;;;;;;;5062367;28;20091;-81
2024/01/24 04:31:14;;;;;;;26.60;3.83;;;;;;;;;;5063030;28;20041;-82
2024/01/24 04:33:40;;;;;;;21.95;3.65;;;;;;;;;;5063157;28;20045;-82
2024/01/24 04:36:06;;;;;;;22.83;3.85;;;;;;;;;;5063308;28;20048;-81
2024/01/24 04:38:32;;;;;;;24.33;3.90;;;;;;;;;;5061144;28;20506;-81
2024/01/24 04:40:58;;;;;;;26.63;3.92;;;;;;;;;;5062813;28;20141;-81
2024/01/24 04:43:24;;;;;;;22.27;3.50;;;;;;;;;;5060912;28;20070;-82
2024/01/24 04:45:50;;;;;;;25.88;4.55;;;;;;;;;;5056767;28;20049;-81
2024/01/24 04:48:16;;;;;;;25.58;3.72;;;;;;;;;;5060903;28;20048;-81
2024/01/24 04:50:42;;;;;;;28.63;4.50;;;;;;;;;;5063698;28;20037;-82
2024/01/24 04:53:08;;;;;;;26.77;4.32;;;;;;;;;;5063275;28;20049;-81
2024/01/24 04:55:34;;;;;;;24.25;4.30;;;;;;;;;;5061829;28;20056;-82
2024/01/24 04:58:02;;;;;;;24.85;4.20;;;;;;;;;;5061675;28;20060;-82
2024/01/24 05:00:28;;;;;;;18.35;3.20;;;;;;;;;;5053056;28;20109;-82
2024/01/24 05:02:54;;;;;;;25.88;4.47;;;;;;;;;;5062104;28;20052;-82
2024/01/24 05:05:20;;;;;;;22.52;5.15;;;;;;;;;;5054939;28;20049;-82
2024/01/24 05:07:46;;;;;;;26.13;4.80;;;;;;;;;;5061875;28;20505;-82
2024/01/24 05:10:12;;;;;;;25.35;4.40;;;;;;;;;;5061201;28;20503;-81
2024/01/24 05:12:38;;;;;;;29.52;4.95;;;;;;;;;;5059856;28;20094;-81
2024/01/24 05:15:04;;;;;;;20.55;3.80;;;;;;;;;;5053870;28;20048;-82
2024/01/24 05:17:31;;;;;;;26.77;4.70;;;;;;;;;;5061369;28;20052;-83
2024/01/24 05:19:57;;;;;;;20.83;4.47;;;;;;;;;;5061843;28;20041;-81
2024/01/24 05:22:23;;;;;;;24.38;4.82;;;;;;;;;;5062268;28;20064;-82
2024/01/24 05:24:49;;;;;;;24.45;4.97;;;;;;;;;;5060485;28;20041;-81
2024/01/24 05:27:15;;;;;;;29.48;5.20;;;;;;;;;;5058105;28;20057;-82
2024/01/24 05:29:41;;;;;;;26.15;4.63;;;;;;;;;;5061714;28;20076;-82
2024/01/24 05:32:07;;;;;;;31.95;5.32;;;;;;;;;;5061730;28;20044;-81
2024/01/24 05:34:33;;;;;;;32.45;5.57;;;;;;;;;;5058567;28;20394;-81
2024/01/24 05:36:59;;;;;;;39.92;6.20;;;;;;;;;;5059678;28;20395;-81
2024/01/24 05:39:26;;;;;;;28.55;6.10;;;;;;;;;;5060683;28;20036;-81
2024/01/24 05:41:52;;;;;;;28.73;5.70;;;;;;;;;;5049542;28;20045;-81
2024/01/24 05:44:18;;;;;;;35.72;5.57;;;;;;;;;;5056358;28;20864;-82
2024/01/24 05:46:44;;;;;;;31.08;5.72;;;;;;;;;;5058879;28;20133;-81
2024/01/24 05:49:10;;;;;;;33.70;5.93;;;;;;;;;;5058905;28;20041;-81
2024/01/24 05:51:36;;;;;;;29.95;5.80;;;;;;;;;;5059035;28;20140;-81
2024/01/24 05:54:02;;;;;;;32.22;6.40;;;;;;;;;;5049776;28;20041;-81
2024/01/24 05:56:28;;;;;;;34.65;5.35;;;;;;;;;;5050094;28;20099;-82
2024/01/24 05:58:55;;;;;;;31.67;5.78;;;;;;;;;;5061200;28;20053;-81
2024/01/24 06:01:21;;;;;;;29.30;5.20;;;;;;;;;;5061098;28;20076;-81
2024/01/24 06:03:47;;;;;;;30.08;5.80;;;;;;;;;;5054693;28;20175;-81
2024/01/24 06:06:13;;;;;;;34.90;7.05;;;;;;;;;;5060929;28;20037;-81
2024/01/24 06:08:40;;;;;;;29.02;5.50;;;;;;;;;;5055362;28;20135;-80
2024/01/24 06:11:06;;;;;;;34.13;5.90;;;;;;;;;;5052718;28;20049;-81
2024/01/24 06:13:35;;;;;;;35.28;6.40;;;;;;;;;;5056296;28;20405;-81
2024/01/24 06:16:01;;;;;;;39.05;6.93;;;;;;;;;;5053581;28;20487;-81
2024/01/24 06:18:27;;;;;;;31.55;5.80;;;;;;;;;;5054478;28;20060;-81
2024/01/24 06:20:53;;;;;;;30.88;6.20;;;;;;;;;;5059754;28;20127;-81
2024/01/24 06:23:19;;;;;;;34.08;5.80;;;;;;;;;;5060663;28;20041;-81
2024/01/24 06:25:45;;;;;;;38.92;6.07;;;;;;;;;;5060371;28;20087;-81
2024/01/24 06:28:13;;;;;;;34.58;5.90;;;;;;;;;;5054915;28;20049;-81
2024/01/24 06:30:39;;;;;;;31.08;5.75;;;;;;;;;;5056863;28;20060;-81
2024/01/24 06:33:05;;;;;;;34.63;6.78;;;;;;;;;;5055887;28;20102;-81
2024/01/24 06:35:31;;;;;;;28.50;4.53;;;;;;;;;;5056391;28;20056;-82
2024/01/24 06:37:57;;;;;;;40.83;7.03;;;;;;;;;;5056734;28;20097;-81
2024/01/24 06:40:23;;;;;;;35.78;6.70;;;;;;;;;;5058100;28;20067;-83
2024/01/24 06:42:50;;;;;;;40.05;6.72;;;;;;;;;;5059281;28;20041;-81
2024/01/24 06:45:16;;;;;;;36.30;6.88;;;;;;;;;;5059167;28;20127;-81
2024/01/24 06:47:43;;;;;;;32.70;5.47;;;;;;;;;;5060249;28;20056;-81
2024/01/24 06:50:13;;;;;;;37.28;6.75;;;;;;;;;;5058857;28;20565;-82
2024/01/24 06:52:39;;;;;;;30.40;5.90;;;;;;;;;;5059705;28;20041;-81
2024/01/24 06:55:06;;;;;;;31.95;6.03;;;;;;;;;;5059051;28;20478;-82
2024/01/24 06:57:32;;;;;;;29.65;6.03;;;;;;;;;;5059178;28;20044;-81
2024/01/24 06:59:58;;;;;;;31.67;6.07;;;;;;;;;;5059000;28;20157;-82
2024/01/24 07:02:24;;;;;;;32.10;6.63;;;;;;;;;;5058864;28;20045;-81
2024/01/24 07:04:50;;;;;;;36.13;6.25;;;;;;;;;;5055116;28;20099;-81
2024/01/24 07:07:16;;;;;;;29.58;5.85;;;;;;;;;;5049204;28;20048;-81
2024/01/24 07:09:42;;;;;;;36.10;7.10;;;;;;;;;;5054215;28;20045;-81
2024/01/24 07:12:09;;;;;;;33.13;6.13;;;;;;;;;;5054038;28;20045;-82
2024/01/24 07:14:35;;;;;;;36.22;6.70;;;;;;;;;;5054727;28;20049;-81
2024/01/24 07:17:01;;;;;;;29.70;6.32;;;;;;;;;;5043321;28;20049;-81
2024/01/24 07:19:27;;;;;;;37.00;6.70;;;;;;;;;;5053768;28;20052;-81
2024/01/24 07:21:54;;;;;;;33.58;7.07;;;;;;;;;;5060199;28;20067;-81
2024/01/24 07:24:20;;;;;;;44.53;7.10;;;;;;;;;;5060500;28;20148;-81
2024/01/24 07:26:46;;;;;;;28.73;5.75;;;;;;;;;;5059742;28;20041;-80
2024/01/24 07:29:12;;;;;;;36.83;7.20;;;;;;;;;;5060046;28;20048;-80
2024/01/24 07:31:39;;;;;;;30.85;5.47;;;;;;;;;;5061023;28;20046;-81
2024/01/24 07:34:06;;;;;;;33.80;6.53;;;;;;;;;;5061233;28;20094;-82
2024/01/24 07:36:32;;;;;;;39.22;7.13;;;;;;;;;;5059171;28;20036;-82
2024/01/24 07:38:58;;;;;;;35.97;6.88;;;;;;;;;;5059766;28;20040;-82
2024/01/24 07:41:24;;;;;;;34.92;6.40;;;;;;;;;;5060447;28;20099;-81
2024/01/24 07:43:50;;;;;;;39.80;6.55;;;;;;;;;;5058768;28;20040;-81
2024/01/24 07:46:16;;;;;;;33.63;6.85;;;;;;;;;;5061230;28;20045;-80
2024/01/24 07:48:42;;;;;;;37.22;7.25;;;;;;;;;;5063109;28;20048;-80
2024/01/24 07:51:08;;;;;;;35.97;6.88;;;;;;;;;;5081014;28;20053;-80
2024/01/24 07:53:36;;;;;;;40.45;7.13;;;;;;;;;;5062657;28;20044;-80
2024/01/24 07:56:03;;;;;;;32.72;5.85;;;;;;;;;;5057235;28;20064;-81
2024/01/24 07:58:29;;;;;;;31.30;5.82;;;;;;;;;;5056039;28;20080;-81
2024/01/24 08:00:55;;;;;;;36.42;7.32;;;;;;;;;;5061380;28;20064;-80
2024/01/24 08:03:21;;;;;;;41.28;7.43;;;;;;;;;;5061061;28;20459;-80
2024/01/24 08:05:48;;;;;;;37.53;6.75;;;;;;;;;;5061562;28;20517;-81
2024/01/24 08:08:14;;;;;;;42.70;7.38;;;;;;;;;;5061523;28;20049;-81
2024/01/24 08:10:40;;;;;;;36.63;6.22;;;;;;;;;;5061304;28;20057;-81
2024/01/24 08:13:06;;;;;;;37.70;7.20;;;;;;;;;;5061406;28;20049;-82
2024/01/24 08:15:33;;;;;;;33.75;6.20;;;;;;;;;;5061431;28;20044;-80
2024/01/24 08:17:59;;;;;;;34.53;7.47;;;;;;;;;;5061046;28;20044;-81
2024/01/24 08:20:25;;;;;;;35.33;6.47;;;;;;;;;;5061430;28;20041;-81
2024/01/24 08:22:51;;;;;;;41.83;7.97;;;;;;;;;;5059627;28;20084;-81
2024/01/24 08:25:17;;;;;;;39.10;7.35;;;;;;;;;;5061269;28;20055;-81
2024/01/24 08:27:47;;;;;;;36.53;6.28;;;;;;;;;;5061761;28;20048;-81
2024/01/24 08:30:13;;;;;;;32.40;6.65;;;;;;;;;;5060698;28;20104;-81
2024/01/24 08:32:41;;;;;;;34.22;7.22;;;;;;;;;;5062540;28;20459;-81
2024/01/24 08:35:10;;;;;;;38.95;6.05;;;;;;;;;;5060669;28;20044;-81
2024/01/24 08:37:40;;;;;;;34.78;6.50;;;;;;;;;;5060879;28;20139;-81
2024/01/24 08:40:08;;;;;;;35.58;6.78;;;;;;;;;;5061549;28;20053;-81
2024/01/24 08:42:34;;;;;;;32.80;6.22;;;;;;;;;;5056661;28;20156;-81
2024/01/24 08:45:00;;;;;;;35.42;7.30;;;;;;;;;;5053681;28;20045;-81
2024/01/24 08:47:26;;;;;;;36.33;6.68;;;;;;;;;;5052566;28;20096;-82
2024/01/24 08:49:53;;;;;;;43.72;7.93;;;;;;;;;;5060764;28;20106;-82
2024/01/24 08:52:19;;;;;;;22.52;5.22;;;;;;;;;;5056873;28;20041;-83
2024/01/24 08:54:46;;;;;;;41.30;6.78;;;;;;;;;;5057403;28;20045;-82
2024/01/24 08:57:12;;;;;;;38.03;6.57;;;;;;;;;;5056699;28;20041;-82
2024/01/24 08:59:38;;;;;;;40.72;7.20;;;;;;;;;;5058291;28;20447;-81
2024/01/24 09:02:06;;;;;;;38.83;7.95;;;;;;;;;;5057697;28;20053;-81
2024/01/24 09:04:36;;;;;;;40.58;7.65;;;;;;;;;;5065130;28;20045;-82
2024/01/24 09:07:03;;;;;;;42.15;7.63;;;;;;;;;;5056319;28;20076;-82
2024/01/24 09:09:32;;;;;;;45.20;8.27;;;;;;;;;;5056796;28;20124;-82
2024/01/24 09:11:59;;;;;;;42.05;7.57;;;;;;;;;;5059051;28;20037;-82
2024/01/24 09:14:25;;;;;;;40.58;9.02;;;;;;;;;;5057830;28;20494;-81
2024/01/24 09:16:51;;;;;;;40.83;8.07;;;;;;;;;;5058196;28;20557;-82
2024/01/24 09:19:17;;;;;;;36.85;7.20;;;;;;;;;;5056074;28;20052;-83
2024/01/24 09:21:43;;;;;;;41.92;8.90;;;;;;;;;;5070543;28;20045;-83
2024/01/24 09:24:09;;;;;;;39.55;7.25;;;;;;;;;;5060145;28;20040;-82
2024/01/24 09:26:36;;;;;;;40.40;7.55;;;;;;;;;;5059457;28;20049;-82
2024/01/24 09:29:02;;;;;;;33.80;6.40;;;;;;;;;;5058707;28;20041;-83
2024/01/24 09:31:29;;;;;;;36.95;7.35;;;;;;;;;;5059686;28;20044;-82
2024/01/24 09:33:56;;;;;;;43.92;7.47;;;;;;;;;;5057594;28;20044;-82
2024/01/24 09:36:23;;;;;;;39.42;6.50;;;;;;;;;;5059822;28;20064;-83
2024/01/24 09:38:52;;;;;;;35.53;6.35;;;;;;;;;;5060017;28;20123;-83
2024/01/24 09:41:21;;;;;;;40.25;7.10;;;;;;;;;;5077085;28;20040;-83
2024/01/24 09:43:48;;;;;;;42.55;7.57;;;;;;;;;;5061924;28;20073;-82
2024/01/24 09:46:18;;;;;;;37.90;7.80;;;;;;;;;;5060981;28;20049;-82
2024/01/24 09:48:45;;;;;;;36.72;7.95;;;;;;;;;;5060592;28;20086;-82
2024/01/24 09:51:11;;;;;;;36.75;6.40;;;;;;;;;;5069926;28;20074;-81
2024/01/24 09:53:39;;;;;;;34.55;5.97;;;;;;;;;;5059453;28;20094;-81
2024/01/24 09:56:05;;;;;;;32.70;7.35;;;;;;;;;;5061636;28;20048;-83
2024/01/24 09:58:31;;;;;;;36.92;6.43;;;;;;;;;;5054723;28;20060;-81
2024/01/24 10:00:58;;;;;;;40.67;7.57;;;;;;;;;;5046680;28;20135;-81
2024/01/24 10:03:28;;;;;;;31.83;6.25;;;;;;;;;;5066987;28;20036;-81
2024/01/24 10:05:55;;;;;;;37.35;7.07;;;;;;;;;;5053309;28;20049;-81
2024/01/24 10:08:21;;;;;;;35.63;6.95;;;;;;;;;;5061123;28;20048;-80
2024/01/24 10:10:47;;;;;;;34.10;6.47;;;;;;;;;;5058219;28;20114;-81
2024/01/24 10:13:14;;;;;;;31.90;6.00;;;;;;;;;;5059701;28;20122;-81
2024/01/24 10:15:40;;;;;;;37.20;7.63;;;;;;;;;;5058444;28;20356;-80
2024/01/24 10:18:07;;;;;;;29.27;5.78;;;;;;;;;;5058514;28;20049;-81
2024/01/24 10:20:35;;;;;;;36.05;5.95;;;;;;;;;;5060908;28;20044;-82
2024/01/24 10:23:02;;;;;;;33.65;6.05;;;;;;;;;;5054314;28;20044;-82
2024/01/24 10:25:28;;;;;;;36.10;6.50;;;;;;;;;;5061219;28;20100;-82
2024/01/24 10:27:55;;;;;;;31.08;5.93;;;;;;;;;;5061397;28;20121;-79
2024/01/24 10:30:23;;;;;;;35.78;6.35;;;;;;;;;;5061278;28;20053;-81
2024/01/24 10:32:49;;;;;;;34.55;6.82;;;;;;;;;;5061819;28;20056;-80
2024/01/24 10:35:16;;;;;;;31.67;6.32;;;;;;;;;;5066770;28;20040;-82
2024/01/24 10:37:42;;;;;;;29.73;6.20;;;;;;;;;;5060748;28;20037;-82
2024/01/24 10:40:13;;;;;;;33.50;6.53;;;;;;;;;;5054235;28;20057;-82
2024/01/24 10:42:41;;;;;;;27.98;5.80;;;;;;;;;;5062741;28;20132;-82
2024/01/24 10:45:07;;;;;;;32.95;6.43;;;;;;;;;;5076842;28;20033;-81
2024/01/24 10:47:34;;;;;;;33.50;5.72;;;;;;;;;;5050289;28;20033;-81
2024/01/24 10:50:04;;;;;;;31.55;5.47;;;;;;;;;;5061529;28;20041;-81
2024/01/24 10:52:31;;;;;;;30.92;5.47;;;;;;;;;;5057514;28;20072;-81
2024/01/24 10:55:04;;;;;;;35.83;6.43;;;;;;;;;;5058097;28;20052;-81
2024/01/24 10:57:30;;;;;;;28.58;6.10;;;;;;;;;;5065071;28;20051;-82
2024/01/24 10:59:57;;;;;;;34.35;6.55;;;;;;;;;;5064889;28;20037;-81
2024/01/24 11:02:23;;;;;;;34.63;6.28;;;;;;;;;;5064734;28;20139;-81
2024/01/24 11:04:50;;;;;;;28.67;5.30;;;;;;;;;;5062916;28;20037;-82
2024/01/24 11:07:20;;;;;;;30.15;6.30;;;;;;;;;;5066256;28;20045;-81
2024/01/24 11:10:07;;;;;;;33.90;6.13;;;;;;;;;;5054777;28;20045;-81
2024/01/24 11:12:33;;;;;;;29.05;5.70;;;;;;;;;;5072440;28;20044;-82
2024/01/24 11:15:05;;;;;;;32.05;5.40;;;;;;;;;;5063538;28;20477;-83
2024/01/24 11:17:32;;;;;;;28.33;5.60;;;;;;;;;;5062985;28;20212;-81
2024/01/24 11:19:58;;;;;;;29.15;5.53;;;;;;;;;;5065739;28;20044;-81
2024/01/24 11:22:25;;;;;;;31.80;5.90;;;;;;;;;;5065772;28;20049;-81
2024/01/24 11:24:55;;;;;;;24.83;5.20;;;;;;;;;;5064759;28;20094;-81
2024/01/24 11:27:27;;;;;;;29.20;5.60;;;;;;;;;;5066019;28;20044;-81
2024/01/24 11:29:53;;;;;;;28.13;5.28;;;;;;;;;;5061479;28;20053;-80
2024/01/24 11:32:39;;;;;;;28.85;5.28;;;;;;;;;;5074234;28;20047;-80
2024/01/24 11:35:23;;;;;;;28.67;4.78;;;;;;;;;;5062381;28;20052;-81
2024/01/24 11:37:49;;;;;;;29.58;5.75;;;;;;;;;;5063294;28;20060;-80
2024/01/24 11:40:17;;;;;;;25.33;4.35;;;;;;;;;;5075506;28;20485;-80
2024/01/24 11:42:53;;;;;;;24.75;4.88;;;;;;;;;;5074764;28;20045;-80
2024/01/24 11:45:20;;;;;;;31.15;5.53;;;;;;;;;;5061656;28;20129;-80
2024/01/24 11:47:46;;;;;;;33.78;5.40;;;;;;;;;;5059428;28;20044;-80
2024/01/24 11:50:13;;;;;;;25.35;5.25;;;;;;;;;;5061230;28;20045;-81
2024/01/24 11:52:40;;;;;;;26.80;5.22;;;;;;;;;;5061366;28;20044;-80
2024/01/24 11:55:06;;;;;;;27.38;4.88;;;;;;;;;;5064763;28;20045;-80
2024/01/24 11:57:32;;;;;;;28.60;5.80;;;;;;;;;;5062805;28;20448;-80
2024/01/24 11:59:58;;;;;;;29.50;5.70;;;;;;;;;;5063691;28;20391;-80
2024/01/24 12:02:25;;;;;;;28.42;5.47;;;;;;;;;;5062192;28;20439;-80
2024/01/24 12:04:52;;;;;;;30.10;6.03;;;;;;;;;;5056409;28;20072;-80
2024/01/24 12:07:18;;;;;;;29.65;5.35;;;;;;;;;;5064255;28;20491;-80
2024/01/24 12:09:44;;;;;;;29.60;5.20;;;;;;;;;;5061539;28;20041;-80
2024/01/24 12:12:11;;;;;;;28.92;5.97;;;;;;;;;;5054838;28;20053;-81
2024/01/24 12:14:37;;;;;;;29.90;6.00;;;;;;;;;;5061270;28;20076;-79
2024/01/24 12:17:07;;;;;;;28.30;5.20;;;;;;;;;;5044588;28;20099;-80
2024/01/24 12:19:34;;;;;;;28.80;5.72;;;;;;;;;;5074986;28;20044;-80
2024/01/24 12:22:00;;;;;;;25.13;5.05;;;;;;;;;;5057953;28;20121;-79
2024/01/24 12:24:26;;;;;;;28.17;5.20;;;;;;;;;;5064081;28;20059;-80
2024/01/24 12:26:53;;;;;;;22.25;4.03;;;;;;;;;;5062079;28;20043;-80
2024/01/24 12:29:19;;;;;;;27.42;5.05;;;;;;;;;;5062750;28;20379;-81
2024/01/24 12:31:48;;;;;;;25.70;5.03;;;;;;;;;;5062922;28;20486;-80
2024/01/24 12:34:14;;;;;;;32.88;5.70;;;;;;;;;;5062050;28;20041;-80
2024/01/24 12:36:43;;;;;;;32.08;5.60;;;;;;;;;;5056846;28;20339;-80
2024/01/24 12:39:09;;;;;;;33.05;6.63;;;;;;;;;;5068543;28;20037;-79
2024/01/24 12:41:35;;;;;;;29.40;5.28;;;;;;;;;;5058032;28;20053;-80
2024/01/24 12:44:01;;;;;;;33.55;5.85;;;;;;;;;;5043720;28;20049;-80
2024/01/24 12:46:28;;;;;;;28.45;5.88;;;;;;;;;;5049505;28;20455;-80
2024/01/24 12:48:54;;;;;;;28.75;5.35;;;;;;;;;;5058715;28;20041;-80
2024/01/24 12:51:20;;;;;;;30.73;6.30;;;;;;;;;;5059685;28;20080;-83
2024/01/24 12:53:46;;;;;;;31.73;6.00;;;;;;;;;;5052185;28;20048;-80
2024/01/24 12:56:15;;;;;;;28.08;6.43;;;;;;;;;;5063309;28;20055;-80
2024/01/24 12:58:42;;;;;;;29.95;4.70;;;;;;;;;;5058770;28;20057;-80
2024/01/24 13:01:09;;;;;;;24.60;4.63;;;;;;;;;;5064142;28;20049;-80
2024/01/24 13:03:35;;;;;;;26.35;4.90;;;;;;;;;;5063303;28;20045;-80
2024/01/24 13:06:01;;;;;;;29.13;5.60;;;;;;;;;;5063141;28;20053;-80
2024/01/24 13:08:27;;;;;;;31.35;6.22;;;;;;;;;;5062886;28;20044;-80
2024/01/24 13:10:54;;;;;;;24.35;4.70;;;;;;;;;;5067154;28;20045;-80
2024/01/24 13:13:21;;;;;;;29.77;5.47;;;;;;;;;;5055058;28;20128;-81
2024/01/24 13:15:48;;;;;;;30.42;5.22;;;;;;;;;;5054905;28;20056;-81
2024/01/24 13:18:14;;;;;;;31.45;5.50;;;;;;;;;;5056795;28;20079;-81
2024/01/24 13:20:40;;;;;;;29.50;5.30;;;;;;;;;;5062027;28;20141;-81
2024/01/24 13:23:06;;;;;;;28.20;5.38;;;;;;;;;;5064964;28;20049;-82
2024/01/24 13:25:32;;;;;;;33.63;5.78;;;;;;;;;;5064351;28;20352;-80
2024/01/24 13:27:59;;;;;;;32.00;5.70;;;;;;;;;;5064658;28;20090;-80
2024/01/24 13:30:25;;;;;;;31.65;5.82;;;;;;;;;;5063141;28;20067;-81
2024/01/24 13:32:51;;;;;;;30.92;5.70;;;;;;;;;;5062117;28;20064;-80
2024/01/24 13:35:17;;;;;;;29.70;5.65;;;;;;;;;;5062549;28;20041;-79
2024/01/24 13:37:44;;;;;;;31.05;5.43;;;;;;;;;;5055451;28;20052;-80
2024/01/24 13:40:11;;;;;;;29.38;5.45;;;;;;;;;;5050570;28;20155;-80
2024/01/24 13:42:37;;;;;;;35.38;6.70;;;;;;;;;;5059915;28;20060;-80
2024/01/24 13:45:03;;;;;;;26.02;5.22;;;;;;;;;;5056972;28;20053;-80
2024/01/24 13:47:30;;;;;;;38.28;6.40;;;;;;;;;;5064469;28;20049;-80
2024/01/24 13:49:56;;;;;;;30.10;5.65;;;;;;;;;;5054416;28;20041;-80
2024/01/24 13:52:22;;;;;;;28.17;5.30;;;;;;;;;;5044661;28;20049;-80
2024/01/24 13:54:48;;;;;;;33.83;6.35;;;;;;;;;;5072157;28;20064;-80
2024/01/24 13:57:14;;;;;;;34.00;6.38;;;;;;;;;;5053256;28;20049;-79
2024/01/24 13:59:40;;;;;;;27.42;5.80;;;;;;;;;;5049917;28;20136;-80
2024/01/24 14:02:06;;;;;;;32.20;5.93;;;;;;;;;;5060200;28;20045;-80
2024/01/24 14:04:32;;;;;;;37.28;6.55;;;;;;;;;;5062574;28;20048;-80
2024/01/24 14:06:58;;;;;;;26.83;5.05;;;;;;;;;;5062182;28;20107;-80
2024/01/24 14:09:25;;;;;;;35.00;6.35;;;;;;;;;;5061185;28;20041;-80
2024/01/24 14:11:53;;;;;;;32.47;5.70;;;;;;;;;;5052863;28;20049;-81
2024/01/24 14:14:19;;;;;;;29.20;4.68;;;;;;;;;;5051843;28;20069;-82
2024/01/24 14:16:45;;;;;;;31.77;6.07;;;;;;;;;;5052950;28;20052;-81
2024/01/24 14:19:11;;;;;;;33.58;5.68;;;;;;;;;;5052589;28;20064;-81
2024/01/24 14:21:37;;;;;;;34.28;6.55;;;;;;;;;;5055616;28;20502;-80
2024/01/24 14:24:03;;;;;;;33.30;6.25;;;;;;;;;;5076071;28;20132;-81
2024/01/24 14:26:30;;;;;;;27.40;5.65;;;;;;;;;;5072528;28;20485;-81
2024/01/24 14:28:57;;;;;;;31.25;7.05;;;;;;;;;;5078889;28;20053;-81